createdAt,value
2023-02-27T00:00:15.265Z,0.40
2023-02-27T00:02:47.780Z,0.32
2023-02-27T00:05:15.455Z,0.28
2023-02-27T00:07:42.918Z,0.20
2023-02-27T00:10:10.654Z,0.30
2023-02-27T00:12:39.030Z,0.30
2023-02-27T00:15:09.944Z,0.20
2023-02-27T00:17:37.165Z,0.30
2023-02-27T00:20:06.008Z,0.20
2023-02-27T00:22:32.946Z,0.30
2023-02-27T00:24:59.848Z,0.30
2023-02-27T00:27:26.690Z,0.30
2023-02-27T00:29:53.445Z,0.32
2023-02-27T00:32:20.362Z,0.28
2023-02-27T00:34:47.229Z,0.38
2023-02-27T00:37:14.041Z,0.30
2023-02-27T00:39:40.844Z,0.20
2023-02-27T00:42:07.749Z,0.57
2023-02-27T00:44:34.572Z,0.40
2023-02-27T00:47:01.417Z,0.30
2023-02-27T00:49:28.229Z,0.70
2023-02-27T00:51:55.065Z,0.30
2023-02-27T00:54:21.853Z,0.40
2023-02-27T00:56:48.812Z,0.60
2023-02-27T00:59:15.586Z,0.45
2023-02-27T01:01:45.580Z,0.73
2023-02-27T01:04:12.450Z,0.60
2023-02-27T01:06:39.316Z,0.60
2023-02-27T01:09:06.525Z,0.50
2023-02-27T01:11:33.749Z,0.43
2023-02-27T01:14:01.011Z,0.43
2023-02-27T01:16:28.035Z,0.60
2023-02-27T01:18:54.857Z,0.52
2023-02-27T01:21:21.625Z,0.50
2023-02-27T01:23:48.472Z,0.68
2023-02-27T01:26:15.229Z,0.43
2023-02-27T01:28:42.116Z,0.30
2023-02-27T01:31:09.432Z,0.60
2023-02-27T01:33:36.948Z,0.57
2023-02-27T01:36:03.933Z,0.30
2023-02-27T01:38:30.908Z,0.65
2023-02-27T01:40:57.749Z,0.40
2023-02-27T01:43:24.624Z,1.00
2023-02-27T01:45:51.797Z,0.70
2023-02-27T01:48:27.579Z,0.50
2023-02-27T01:51:02.769Z,0.65
2023-02-27T01:53:31.094Z,0.50
2023-02-27T01:56:05.732Z,0.40
2023-02-27T01:58:32.948Z,0.40
2023-02-27T02:01:00.199Z,0.50
2023-02-27T02:03:45.708Z,0.50
2023-02-27T02:06:13.420Z,0.40
2023-02-27T02:08:44.999Z,0.38
2023-02-27T02:11:13.407Z,0.47
2023-02-27T02:13:41.831Z,0.50
2023-02-27T02:16:25.264Z,0.60
2023-02-27T02:19:07.035Z,0.50
2023-02-27T02:21:45.662Z,0.55
2023-02-27T02:24:25.853Z,0.50
2023-02-27T02:27:22.834Z,0.60
2023-02-27T02:30:10.254Z,0.47
2023-02-27T02:33:14.089Z,0.65
2023-02-27T02:36:17.543Z,0.60
2023-02-27T02:39:07.365Z,0.50
2023-02-27T02:41:42.976Z,0.45
2023-02-27T02:44:29.040Z,0.63
2023-02-27T02:47:23.083Z,0.95
2023-02-27T02:50:05.032Z,0.60
2023-02-27T02:52:51.654Z,0.60
2023-02-27T02:55:29.167Z,0.60
2023-02-27T02:58:01.630Z,0.70
2023-02-27T03:00:33.060Z,0.90
2023-02-27T03:03:13.416Z,0.95
2023-02-27T03:05:50.901Z,0.82
2023-02-27T03:08:25.737Z,0.88
2023-02-27T03:11:06.108Z,0.73
2023-02-27T03:13:54.216Z,0.60
2023-02-27T03:16:26.584Z,0.73
2023-02-27T03:19:03.695Z,0.50
2023-02-27T03:21:37.782Z,0.40
2023-02-27T03:24:07.952Z,0.70
2023-02-27T03:26:39.239Z,0.68
2023-02-27T03:29:12.196Z,0.50
2023-02-27T03:31:51.341Z,0.80
2023-02-27T03:34:27.365Z,0.60
2023-02-27T03:37:06.718Z,0.60
2023-02-27T03:39:49.878Z,0.75
2023-02-27T03:42:40.524Z,0.60
2023-02-27T03:45:35.457Z,0.43
2023-02-27T03:48:03.714Z,0.65
2023-02-27T03:50:30.672Z,0.60
2023-02-27T03:52:57.868Z,0.55
2023-02-27T03:55:37.834Z,0.55
2023-02-27T03:58:05.662Z,0.32
2023-02-27T04:00:32.654Z,0.50
2023-02-27T04:03:01.687Z,0.30
2023-02-27T04:05:29.423Z,0.50
2023-02-27T04:08:20.865Z,0.50
2023-02-27T04:11:06.096Z,0.28
2023-02-27T04:13:57.621Z,0.30
2023-02-27T04:16:33.203Z,0.50
2023-02-27T04:19:21.560Z,0.38
2023-02-27T04:22:12.469Z,0.55
2023-02-27T04:24:45.687Z,0.40
2023-02-27T04:27:31.342Z,0.30
2023-02-27T04:30:09.453Z,0.25
2023-02-27T04:32:48.372Z,0.35
2023-02-27T04:35:38.296Z,0.40
2023-02-27T04:38:14.366Z,0.40
2023-02-27T04:40:56.394Z,0.43
2023-02-27T04:43:26.215Z,0.30
2023-02-27T04:45:56.816Z,0.40
2023-02-27T04:48:26.722Z,0.30
2023-02-27T04:51:03.317Z,0.47
2023-02-27T04:53:43.442Z,0.60
2023-02-27T04:56:15.980Z,0.32
2023-02-27T04:58:50.478Z,0.50
2023-02-27T05:01:22.793Z,0.32
2023-02-27T05:03:54.163Z,0.43
2023-02-27T05:06:26.318Z,0.47
2023-02-27T05:09:03.461Z,0.50
2023-02-27T05:11:49.240Z,0.70
2023-02-27T05:14:42.525Z,0.52
2023-02-27T05:17:17.941Z,0.80
2023-02-27T05:19:46.058Z,0.90
2023-02-27T05:22:31.933Z,0.82
2023-02-27T05:25:24.308Z,0.90
2023-02-27T05:28:07.062Z,0.82
2023-02-27T05:30:57.415Z,1.05
2023-02-27T05:33:38.857Z,1.00
2023-02-27T05:36:15.229Z,0.95
2023-02-27T05:38:50.513Z,0.88
2023-02-27T05:41:28.645Z,0.85
2023-02-27T05:44:01.663Z,0.73
2023-02-27T05:46:33.570Z,0.70
2023-02-27T05:49:09.894Z,0.90
2023-02-27T05:51:38.466Z,0.90
2023-02-27T05:54:22.670Z,1.08
2023-02-27T05:56:53.573Z,0.70
2023-02-27T05:59:29.285Z,0.90
2023-02-27T06:01:56.181Z,0.80
2023-02-27T06:04:23.107Z,0.88
2023-02-27T06:06:49.861Z,0.80
2023-02-27T06:09:16.735Z,0.68
2023-02-27T06:11:43.564Z,0.88
2023-02-27T06:14:10.353Z,0.70
2023-02-27T06:16:39.058Z,0.90
2023-02-27T06:19:06.793Z,0.52
2023-02-27T06:21:33.640Z,0.68
2023-02-27T06:24:00.607Z,0.75
2023-02-27T06:26:27.580Z,1.23
2023-02-27T06:28:55.023Z,0.75
2023-02-27T06:31:21.902Z,1.20
2023-02-27T06:33:48.805Z,0.70
2023-02-27T06:36:15.601Z,1.15
2023-02-27T06:38:42.690Z,1.08
2023-02-27T06:41:09.495Z,0.70
2023-02-27T06:43:37.184Z,0.80
2023-02-27T06:46:04.206Z,0.88
2023-02-27T06:48:31.169Z,0.80
2023-02-27T06:50:58.397Z,0.82
2023-02-27T06:53:26.063Z,0.70
2023-02-27T06:55:52.965Z,1.10
2023-02-27T06:58:19.798Z,1.00
2023-02-27T07:00:47.182Z,1.25
2023-02-27T07:03:14.064Z,1.35
2023-02-27T07:05:42.101Z,0.93
2023-02-27T07:08:10.168Z,1.00
2023-02-27T07:10:37.296Z,1.00
2023-02-27T07:13:04.013Z,0.90
2023-02-27T07:15:30.860Z,0.80
2023-02-27T07:17:57.680Z,0.82
2023-02-27T07:20:24.490Z,0.77
2023-02-27T07:22:51.265Z,0.55
2023-02-27T07:25:18.063Z,0.60
2023-02-27T07:27:46.119Z,0.93
2023-02-27T07:30:13.316Z,0.82
2023-02-27T07:32:40.366Z,0.70
2023-02-27T07:35:08.107Z,0.80
2023-02-27T07:37:34.911Z,0.98
2023-02-27T07:40:01.968Z,0.70
2023-02-27T07:42:28.741Z,0.90
2023-02-27T07:44:55.506Z,1.00
2023-02-27T07:47:22.292Z,1.00
2023-02-27T07:49:49.096Z,0.73
2023-02-27T07:52:15.918Z,0.77
2023-02-27T07:54:42.619Z,1.00
2023-02-27T07:57:09.415Z,1.10
2023-02-27T07:59:36.181Z,1.10
2023-02-27T08:02:03.312Z,1.00
2023-02-27T08:04:30.110Z,0.80
2023-02-27T08:06:58.112Z,0.90
2023-02-27T08:09:24.877Z,1.02
2023-02-27T08:11:51.625Z,1.10
2023-02-27T08:14:18.445Z,1.13
2023-02-27T08:16:45.237Z,1.10
2023-02-27T08:19:13.778Z,1.05
2023-02-27T08:21:40.729Z,1.10
2023-02-27T08:24:07.517Z,1.10
2023-02-27T08:26:34.816Z,1.30
2023-02-27T08:29:01.870Z,1.08
2023-02-27T08:31:28.759Z,0.90
2023-02-27T08:34:04.414Z,1.05
2023-02-27T08:36:36.679Z,1.08
2023-02-27T08:39:04.405Z,0.90
2023-02-27T08:41:31.206Z,0.80
2023-02-27T08:43:58.148Z,1.05
2023-02-27T08:46:25.236Z,0.90
2023-02-27T08:48:52.258Z,1.15
2023-02-27T08:51:19.196Z,1.13
2023-02-27T08:53:45.975Z,0.75
2023-02-27T08:56:12.785Z,1.30
2023-02-27T08:58:39.618Z,1.13
2023-02-27T09:01:06.401Z,1.10
2023-02-27T09:03:33.264Z,1.10
2023-02-27T09:06:00.031Z,1.10
2023-02-27T09:08:27.015Z,0.88
2023-02-27T09:10:57.178Z,1.10
2023-02-27T09:13:24.141Z,1.20
2023-02-27T09:15:51.037Z,1.35
2023-02-27T09:18:17.861Z,1.27
2023-02-27T09:20:44.823Z,1.05
2023-02-27T09:23:12.913Z,1.10
2023-02-27T09:25:39.724Z,1.17
2023-02-27T09:28:06.497Z,1.08
2023-02-27T09:30:33.548Z,1.27
2023-02-27T09:33:00.414Z,0.90
2023-02-27T09:35:27.503Z,1.25
2023-02-27T09:37:54.306Z,1.10
2023-02-27T09:40:26.381Z,0.85
2023-02-27T09:42:58.176Z,0.80
2023-02-27T09:45:28.348Z,1.02
2023-02-27T09:47:59.309Z,1.00
2023-02-27T09:50:39.231Z,1.10
2023-02-27T09:53:16.969Z,0.95
2023-02-27T09:55:45.094Z,1.52
2023-02-27T09:58:50.227Z,1.30
2023-02-27T10:01:20.586Z,1.67
2023-02-27T10:03:53.289Z,1.13
2023-02-27T10:06:26.491Z,1.38
2023-02-27T10:09:14.523Z,1.38
2023-02-27T10:11:56.415Z,1.35
2023-02-27T10:14:42.042Z,1.20
2023-02-27T10:17:31.761Z,1.15
2023-02-27T10:20:02.055Z,1.23
2023-02-27T10:22:33.485Z,1.15
2023-02-27T10:25:29.804Z,1.15
2023-02-27T10:28:03.626Z,1.20
2023-02-27T10:30:34.330Z,1.25
2023-02-27T10:33:09.922Z,1.25
2023-02-27T10:35:39.649Z,1.50
2023-02-27T10:38:15.025Z,1.33
2023-02-27T10:40:42.876Z,1.35
2023-02-27T10:43:13.979Z,1.70
2023-02-27T10:45:40.776Z,1.60
2023-02-27T10:48:08.550Z,1.30
2023-02-27T10:50:39.991Z,1.58
2023-02-27T10:53:27.872Z,1.38
2023-02-27T10:55:59.039Z,1.80
2023-02-27T10:58:28.393Z,1.60
2023-02-27T11:00:57.956Z,1.48
2023-02-27T11:03:29.158Z,1.20
2023-02-27T11:06:06.745Z,1.02
2023-02-27T11:08:35.228Z,1.23
2023-02-27T11:11:06.436Z,1.25
2023-02-27T11:13:42.241Z,1.38
2023-02-27T11:16:20.427Z,1.48
2023-02-27T11:18:49.568Z,1.20
2023-02-27T11:21:24.097Z,1.30
2023-02-27T11:24:00.355Z,1.35
2023-02-27T11:26:38.389Z,1.20
2023-02-27T11:29:20.072Z,1.58
2023-02-27T11:31:57.487Z,1.08
2023-02-27T11:34:29.062Z,1.20
2023-02-27T11:37:04.267Z,1.20
2023-02-27T11:39:37.621Z,1.20
2023-02-27T11:42:32.712Z,1.30
2023-02-27T11:45:07.369Z,1.10
2023-02-27T11:47:38.564Z,1.30
2023-02-27T11:50:45.785Z,1.35
2023-02-27T11:53:18.483Z,1.20
2023-02-27T11:55:47.818Z,1.75
2023-02-27T11:58:21.996Z,1.67
2023-02-27T12:01:05.848Z,1.63
2023-02-27T12:03:51.493Z,1.50
2023-02-27T12:06:25.220Z,1.30
2023-02-27T12:09:00.656Z,2.67
2023-02-27T12:11:38.754Z,2.10
2023-02-27T12:14:32.090Z,1.30
2023-02-27T12:17:15.340Z,1.50
2023-02-27T12:20:09.666Z,1.52
2023-02-27T12:22:40.481Z,1.10
2023-02-27T12:25:24.344Z,1.02
2023-02-27T12:28:20.510Z,0.80
2023-02-27T12:31:12.359Z,1.20
2023-02-27T12:33:49.821Z,0.90
2023-02-27T12:36:16.816Z,0.80
2023-02-27T12:38:43.704Z,1.02
2023-02-27T12:41:39.473Z,1.13
2023-02-27T12:44:24.322Z,1.20
2023-02-27T12:47:09.744Z,1.00
2023-02-27T12:49:45.919Z,1.10
2023-02-27T12:52:48.274Z,0.95
2023-02-27T12:55:27.858Z,0.80
2023-02-27T12:58:19.161Z,0.75
2023-02-27T13:00:51.391Z,0.90
2023-02-27T13:03:34.669Z,0.75
2023-02-27T13:06:17.761Z,0.77
2023-02-27T13:08:53.629Z,0.95
2023-02-27T13:11:38.576Z,0.70
2023-02-27T13:14:12.888Z,0.63
2023-02-27T13:16:47.667Z,0.60
2023-02-27T13:19:17.391Z,0.60
2023-02-27T13:21:55.040Z,1.10
2023-02-27T13:24:31.213Z,0.82
2023-02-27T13:27:32.933Z,0.82
2023-02-27T13:30:18.461Z,0.80
2023-02-27T13:33:07.078Z,1.02
2023-02-27T13:36:11.574Z,0.80
2023-02-27T13:38:46.502Z,0.80
2023-02-27T13:41:25.342Z,0.50
2023-02-27T13:43:53.955Z,0.60
2023-02-27T13:46:31.204Z,0.63
2023-02-27T13:49:20.033Z,0.85
2023-02-27T13:51:57.031Z,0.60
2023-02-27T13:54:33.400Z,0.73
2023-02-27T13:57:18.925Z,0.80
2023-02-27T13:59:53.573Z,0.60
2023-02-27T14:02:25.166Z,0.50
2023-02-27T14:04:55.264Z,0.68
2023-02-27T14:07:28.240Z,0.52
2023-02-27T14:10:11.632Z,0.65
2023-02-27T14:12:45.750Z,0.65
2023-02-27T14:15:22.242Z,0.70
2023-02-27T14:17:59.595Z,0.50
2023-02-27T14:20:32.748Z,0.70
2023-02-27T14:23:21.929Z,0.57
2023-02-27T14:26:28.380Z,0.50
2023-02-27T14:28:56.673Z,0.70
2023-02-27T14:31:44.474Z,1.00
2023-02-27T14:34:15.401Z,0.70
2023-02-27T14:36:47.116Z,0.70
2023-02-27T14:39:40.456Z,0.68
2023-02-27T14:42:29.066Z,0.70
2023-02-27T14:44:56.626Z,0.60
2023-02-27T14:47:33.519Z,0.75
2023-02-27T14:50:02.192Z,0.70
2023-02-27T14:52:31.395Z,0.60
2023-02-27T14:55:27.904Z,0.80
2023-02-27T14:57:54.665Z,0.40
2023-02-27T15:00:33.087Z,0.57
2023-02-27T15:03:00.786Z,0.60
2023-02-27T15:05:34.742Z,0.60
2023-02-27T15:08:01.859Z,0.60
2023-02-27T15:10:33.453Z,0.60
2023-02-27T15:13:01.733Z,0.50
2023-02-27T15:15:28.910Z,0.50
2023-02-27T15:17:56.039Z,0.60
2023-02-27T15:20:22.714Z,1.00
2023-02-27T15:22:49.674Z,0.50
2023-02-27T15:25:33.521Z,0.80
2023-02-27T15:28:22.264Z,1.27
2023-02-27T15:30:51.472Z,1.50
2023-02-27T15:33:18.887Z,1.65
2023-02-27T15:35:46.295Z,1.10
2023-02-27T15:38:31.794Z,0.90
2023-02-27T15:41:01.953Z,1.00
2023-02-27T15:43:30.410Z,1.17
2023-02-27T15:45:58.451Z,1.10
2023-02-27T15:48:25.923Z,1.20
2023-02-27T15:50:56.993Z,1.35
2023-02-27T15:53:26.128Z,1.00
2023-02-27T15:56:01.621Z,1.13
2023-02-27T15:58:35.200Z,0.80
2023-02-27T16:01:07.504Z,0.88
2023-02-27T16:03:42.463Z,0.70
2023-02-27T16:06:35.227Z,0.60
2023-02-27T16:09:06.341Z,0.55
2023-02-27T16:11:37.218Z,1.02
2023-02-27T16:14:06.115Z,0.93
2023-02-27T16:16:38.742Z,0.60
2023-02-27T16:19:28.344Z,0.80
2023-02-27T16:22:14.882Z,0.75
2023-02-27T16:24:42.883Z,0.68
2023-02-27T16:27:23.824Z,0.60
2023-02-27T16:29:52.291Z,0.55
2023-02-27T16:32:35.093Z,0.40
2023-02-27T16:35:15.355Z,0.60
2023-02-27T16:37:44.979Z,1.05
2023-02-27T16:40:19.344Z,1.30
2023-02-27T16:42:47.064Z,1.75
2023-02-27T16:45:19.548Z,2.20
2023-02-27T16:47:50.435Z,1.98
2023-02-27T16:50:34.135Z,1.38
2023-02-27T16:53:01.804Z,1.38
2023-02-27T16:55:28.638Z,2.40
2023-02-27T16:57:56.001Z,2.22
2023-02-27T17:00:23.245Z,2.53
2023-02-27T17:02:51.163Z,2.10
2023-02-27T17:05:18.626Z,2.13
2023-02-27T17:07:46.740Z,2.25
2023-02-27T17:10:19.051Z,1.67
2023-02-27T17:12:47.930Z,1.77
2023-02-27T17:15:15.497Z,1.58
2023-02-27T17:17:42.233Z,1.70
2023-02-27T17:20:10.480Z,1.40
2023-02-27T17:22:42.192Z,1.25
2023-02-27T17:25:10.161Z,1.35
2023-02-27T17:27:36.942Z,1.10
2023-02-27T17:30:04.760Z,1.10
2023-02-27T17:32:31.802Z,1.00
2023-02-27T17:34:59.281Z,1.10
2023-02-27T17:37:26.259Z,1.00
2023-02-27T17:39:53.033Z,1.00
2023-02-27T17:42:20.049Z,1.27
2023-02-27T17:44:47.722Z,1.10
2023-02-27T17:47:15.380Z,1.25
2023-02-27T17:49:42.491Z,1.75
2023-02-27T17:52:09.817Z,1.45
2023-02-27T17:54:36.841Z,1.58
2023-02-27T17:57:09.280Z,1.48
2023-02-27T17:59:36.400Z,1.50
2023-02-27T18:02:03.194Z,1.25
2023-02-27T18:04:30.018Z,1.20
2023-02-27T18:06:56.762Z,1.40
2023-02-27T18:09:23.650Z,0.90
2023-02-27T18:11:50.509Z,0.80
2023-02-27T18:14:17.262Z,0.93
2023-02-27T18:16:45.134Z,0.98
2023-02-27T18:19:12.017Z,2.03
2023-02-27T18:21:38.808Z,2.63
2023-02-27T18:24:06.019Z,3.78
2023-02-27T18:26:33.190Z,2.50
2023-02-27T18:29:09.157Z,2.00
2023-02-27T18:31:39.048Z,1.65
2023-02-27T18:34:06.594Z,1.80
2023-02-27T18:36:33.848Z,1.67
2023-02-27T18:39:01.133Z,1.60
2023-02-27T18:41:29.149Z,1.55
2023-02-27T18:43:56.069Z,1.10
2023-02-27T18:46:22.912Z,1.30
2023-02-27T18:48:50.041Z,1.35
2023-02-27T18:51:17.506Z,1.27
2023-02-27T18:53:48.065Z,1.73
2023-02-27T18:56:17.312Z,1.30
2023-02-27T18:58:44.461Z,1.08
2023-02-27T19:01:30.220Z,0.80
2023-02-27T19:04:03.562Z,0.98
2023-02-27T19:06:42.348Z,1.00
2023-02-27T19:09:11.653Z,0.82
2023-02-27T19:11:38.587Z,0.90
2023-02-27T19:14:08.265Z,1.35
2023-02-27T19:16:35.852Z,1.20
2023-02-27T19:19:04.976Z,1.30
2023-02-27T19:21:32.245Z,1.25
2023-02-27T19:23:59.076Z,1.40
2023-02-27T19:26:26.228Z,0.90
2023-02-27T19:28:54.974Z,1.30
2023-02-27T19:31:23.888Z,2.20
2023-02-27T19:33:51.399Z,2.50
2023-02-27T19:36:21.037Z,1.92
2023-02-27T19:38:48.476Z,1.75
2023-02-27T19:41:17.007Z,1.58
2023-02-27T19:43:44.272Z,1.10
2023-02-27T19:46:14.085Z,1.13
2023-02-27T19:48:41.418Z,0.90
2023-02-27T19:51:10.278Z,0.80
2023-02-27T19:53:38.598Z,0.80
2023-02-27T19:56:08.189Z,0.70
2023-02-27T19:58:36.048Z,0.80
2023-02-27T20:01:04.074Z,0.60
2023-02-27T20:03:31.370Z,0.60
2023-02-27T20:05:58.789Z,0.50
2023-02-27T20:08:25.545Z,0.70
2023-02-27T20:10:55.522Z,0.43
2023-02-27T20:13:22.294Z,0.65
2023-02-27T20:15:56.982Z,0.70
2023-02-27T20:18:24.416Z,0.93
2023-02-27T20:21:05.884Z,0.75
2023-02-27T20:23:34.787Z,0.60
2023-02-27T20:26:01.792Z,0.55
2023-02-27T20:28:28.547Z,0.52
2023-02-27T20:30:55.531Z,0.65
2023-02-27T20:33:22.293Z,0.57
2023-02-27T20:35:49.294Z,0.60
2023-02-27T20:38:19.882Z,0.50
2023-02-27T20:40:46.797Z,0.55
2023-02-27T20:43:13.640Z,0.60
2023-02-27T20:45:41.785Z,0.45
2023-02-27T20:48:08.617Z,0.47
2023-02-27T20:50:36.122Z,0.50
2023-02-27T20:53:02.970Z,0.50
2023-02-27T20:55:30.042Z,0.60
2023-02-27T20:57:57.182Z,0.50
2023-02-27T21:00:26.104Z,0.47
2023-02-27T21:02:53.953Z,0.45
2023-02-27T21:05:20.909Z,0.50
2023-02-27T21:07:47.807Z,0.50
2023-02-27T21:10:14.586Z,0.52
2023-02-27T21:12:41.649Z,0.60
2023-02-27T21:15:08.822Z,0.40
2023-02-27T21:17:35.677Z,0.93
2023-02-27T21:20:06.778Z,1.10
2023-02-27T21:22:34.609Z,1.10
2023-02-27T21:25:01.621Z,0.65
2023-02-27T21:27:28.416Z,0.75
2023-02-27T21:29:55.288Z,0.80
2023-02-27T21:32:22.120Z,0.60
2023-02-27T21:34:48.946Z,0.50
2023-02-27T21:37:15.818Z,0.75
2023-02-27T21:39:42.666Z,0.70
2023-02-27T21:42:09.563Z,0.70
2023-02-27T21:44:36.312Z,0.88
2023-02-27T21:47:09.934Z,1.20
2023-02-27T21:49:37.296Z,1.55
2023-02-27T21:52:04.284Z,1.60
2023-02-27T21:54:31.033Z,1.77
2023-02-27T21:57:01.805Z,1.70
2023-02-27T21:59:28.971Z,1.80
2023-02-27T22:01:57.448Z,2.10
2023-02-27T22:04:24.669Z,2.50
2023-02-27T22:06:52.617Z,2.17
2023-02-27T22:09:20.020Z,1.85
2023-02-27T22:11:47.552Z,2.00
2023-02-27T22:14:14.597Z,1.73
2023-02-27T22:16:41.859Z,1.70
2023-02-27T22:19:10.647Z,1.00
2023-02-27T22:21:38.670Z,0.93
2023-02-27T22:24:06.196Z,1.20
2023-02-27T22:26:33.406Z,1.30
2023-02-27T22:29:00.501Z,1.30
2023-02-27T22:31:30.768Z,1.33
2023-02-27T22:34:02.092Z,1.10
2023-02-27T22:36:30.462Z,1.30
2023-02-27T22:38:57.909Z,1.42
2023-02-27T22:41:30.835Z,1.17
2023-02-27T22:43:59.938Z,1.40
2023-02-27T22:46:32.547Z,1.65
2023-02-27T22:49:02.099Z,1.67
2023-02-27T22:51:29.601Z,2.33
2023-02-27T22:53:58.502Z,1.75
2023-02-27T22:56:26.059Z,2.13
2023-02-27T22:58:53.521Z,1.77
2023-02-27T23:01:23.172Z,1.20
2023-02-27T23:03:52.806Z,1.17
2023-02-27T23:06:23.379Z,1.35
2023-02-27T23:08:50.113Z,1.27
2023-02-27T23:11:18.792Z,1.00
2023-02-27T23:13:45.953Z,1.00
2023-02-27T23:16:13.888Z,1.00
2023-02-27T23:18:46.114Z,0.80
2023-02-27T23:21:13.828Z,0.77
2023-02-27T23:23:40.874Z,0.80
2023-02-27T23:26:07.919Z,0.77
2023-02-27T23:28:36.717Z,1.00
2023-02-27T23:31:06.021Z,1.00
2023-02-27T23:33:32.967Z,0.95
2023-02-27T23:36:01.413Z,0.80
2023-02-27T23:38:29.198Z,1.20
2023-02-27T23:40:56.710Z,0.70
2023-02-27T23:43:23.860Z,0.75
2023-02-27T23:45:50.666Z,0.90
2023-02-27T23:48:17.489Z,0.70
2023-02-27T23:50:44.929Z,0.70
2023-02-27T23:53:13.618Z,0.60
2023-02-27T23:55:41.297Z,0.82
2023-02-27T23:58:11.081Z,0.70
